Terminal Aerodrome Forecast
Issued by NWS

Home | Current Version | Previous Version | Text Only | Print | Product List | Glossary On
Versions: 1 2 3 4 5 6 7 8 9 10 11 12 13 14 15 16 17 18
000
FTUS44 KBMX 260520
TAFTCL
TAF
KTCL 260520Z 2606/2706 10004KT P6SM FEW009 SCT015 OVC200
     FM260900 14008KT P6SM SCT004 BKN007 OVC015
      TEMPO 2611/2613 4SM BR BKN004
     FM261400 16008KT P6SM VCSH BKN015
     FM261600 18008KT P6SM VCTS BKN040CB=

USA.gov is the U.S. government's official web portal to all federal, state and local government web resources and services.